METAR Data
IDs: Format: Raw Decoded Include TAF

Data at: 1322 UTC 21 Apr 2021

METAR for:KSLB (Storm Lake Muni, IA, US)
Text:KSLB 211315Z AUTO 34011G17KT 10SM CLR M02/M07 A3023 RMK AO2
Temperature: -2.0°C ( 28°F)
Dewpoint: -7.0°C ( 19°F) [RH = 69%]
Pressure (altimeter):30.23 inches Hg (1023.8 mb)
Winds:from the NNW (340 degrees) at 13 MPH (11 knots; 5.7 m/s) gusting to 20 MPH (17 knots; 8.7 m/s)
Visibility:10 or more sm (16+ km)
Ceiling:at least 12,000 feet AGL
Clouds:sky clear below 12,000 feet AGL
QC Flag:automated observation with no human augmentation